地図

経路データ

SID SEASON NUMBER BASIN SUBBASIN NAME ISO_TIME NATURE LAT LON WMO_WIND WMO_PRES WMO_AGENCY TRACK_TYPE DIST2LAND LANDFALL IFLAG USA_AGENCY USA_ATCF_ID USA_LAT USA_LON USA_RECORD USA_STATUS USA_WIND USA_PRES USA_SSHS USA_R34_NE USA_R34_SE USA_R34_SW USA_R34_NW USA_R50_NE USA_R50_SE USA_R50_SW USA_R50_NW USA_R64_NE USA_R64_SE USA_R64_SW USA_R64_NW USA_POCI USA_ROCI USA_RMW USA_EYE TOKYO_LAT TOKYO_LON TOKYO_GRADE TOKYO_WIND TOKYO_PRES TOKYO_R50_DIR TOKYO_R50_LONG TOKYO_R50_SHORT TOKYO_R30_DIR TOKYO_R30_LONG TOKYO_R30_SHORT TOKYO_LAND CMA_LAT CMA_LON CMA_CAT CMA_WIND CMA_PRES HKO_LAT HKO_LON HKO_CAT HKO_WIND HKO_PRES NEWDELHI_LAT NEWDELHI_LON NEWDELHI_GRADE NEWDELHI_WIND NEWDELHI_PRES NEWDELHI_CI NEWDELHI_DP NEWDELHI_POCI REUNION_LAT REUNION_LON REUNION_TYPE REUNION_WIND REUNION_PRES REUNION_TNUM REUNION_CI REUNION_RMW REUNION_R34_NE REUNION_R34_SE REUNION_R34_SW REUNION_R34_NW REUNION_R50_NE REUNION_R50_SE REUNION_R50_SW REUNION_R50_NW REUNION_R64_NE REUNION_R64_SE REUNION_R64_SW REUNION_R64_NW BOM_LAT BOM_LON BOM_TYPE BOM_WIND BOM_PRES BOM_TNUM BOM_CI BOM_RMW BOM_R34_NE BOM_R34_SE BOM_R34_SW BOM_R34_NW BOM_R50_NE BOM_R50_SE BOM_R50_SW BOM_R50_NW BOM_R64_NE BOM_R64_SE BOM_R64_SW BOM_R64_NW BOM_ROCI BOM_POCI BOM_EYE BOM_POS_METHOD BOM_PRES_METHOD NADI_LAT NADI_LON NADI_CAT NADI_WIND NADI_PRES WELLINGTON_LAT WELLINGTON_LON WELLINGTON_WIND WELLINGTON_PRES DS824_LAT DS824_LON DS824_STAGE DS824_WIND DS824_PRES TD9636_LAT TD9636_LON TD9636_STAGE TD9636_WIND TD9636_PRES TD9635_LAT TD9635_LON TD9635_WIND TD9635_PRES TD9635_ROCI NEUMANN_LAT NEUMANN_LON NEUMANN_CLASS NEUMANN_WIND NEUMANN_PRES MLC_LAT MLC_LON MLC_CLASS MLC_WIND MLC_PRES USA_GUST BOM_GUST BOM_GUST_PER REUNION_GUST REUNION_GUST_PER USA_SEAHGT USA_SEARAD_NE USA_SEARAD_SE USA_SEARAD_SW USA_SEARAD_NW STORM_SPEED STORM_DIR
1940215S18149 1941 42 SP EA NOT_NAMED 1940-08-01 12:00:00 NR -17.7000 149.200 main 268 257 __________O___ -1 -17.7000 149.200 7 4 154
1940215S18149 1941 42 SP EA NOT_NAMED 1940-08-01 15:00:00 NR -17.8626 149.286 main 257 247 __________P___ -1 -17.8626 149.286 7 4 153
1940215S18149 1941 42 SP EA NOT_NAMED 1940-08-01 18:00:00 NR -18.0301 149.377 main 251 232 __________P___ -1 -18.0301 149.377 7 4 152
1940215S18149 1941 42 SP EA NOT_NAMED 1940-08-01 21:00:00 NR -18.2076 149.480 main 237 225 __________P___ -1 -18.2076 149.480 7 4 150
1940215S18149 1941 42 SP EA NOT_NAMED 1940-08-02 00:00:00 NR -18.4000 149.600 main 225 212 __________O___ -1 -18.4000 149.600 7 5 148
1940215S18149 1941 42 SP EA NOT_NAMED 1940-08-02 03:00:00 NR -18.6089 149.743 main 212 203 __________P___ -1 -18.6089 149.743 7 5 144
1940215S18149 1941 42 SP EA NOT_NAMED 1940-08-02 06:00:00 NR -18.8221 149.917 main 203 194 __________P___ -1 -18.8221 149.917 7 6 138
1940215S18149 1941 42 SP EA NOT_NAMED 1940-08-02 09:00:00 NR -19.0244 150.133 main 199 198 __________P___ -1 -19.0244 150.133 7 6 130
1940215S18149 1941 42 SP EA NOT_NAMED 1940-08-02 12:00:00 NR -19.2000 150.400 main 207 207 __________O___ -1 -19.2000 150.400 7 7 119
1940215S18149 1941 42 SP EA NOT_NAMED 1940-08-02 15:00:00 NR -19.3372 150.737 main 228 228 __________P___ -1 -19.3372 150.737 7 7 110
1940215S18149 1941 42 SP EA NOT_NAMED 1940-08-02 18:00:00 NR -19.4455 151.120 main 260 255 __________P___ -1 -19.4455 151.120 7 8 105
1940215S18149 1941 42 SP EA NOT_NAMED 1940-08-02 21:00:00 NR -19.5310 151.518 main 293 293 __________P___ -1 -19.5310 151.518 7 8 102
1940215S18149 1941 42 SP EA NOT_NAMED 1940-08-03 00:00:00 NR -19.6000 151.900 main 327 327 __________O___ -1 -19.6000 151.900 7 7 102
1940215S18149 1941 42 SP EA NOT_NAMED 1940-08-03 03:00:00 NR -19.6639 152.210 main 339 339 __________P___ -1 -19.6639 152.210 7 6 101
1940215S18149 1941 42 SP EA NOT_NAMED 1940-08-03 06:00:00 NR -19.7143 152.500 main 355 355 __________P___ -1 -19.7143 152.500 7 6 100
1940215S18149 1941 42 SP EA NOT_NAMED 1940-08-03 09:00:00 NR -19.7576 152.791 main 363 363 __________P___ -1 -19.7576 152.791 7 6 99
1940215S18149 1941 42 SP EA NOT_NAMED 1940-08-03 12:00:00 NR -19.8000 153.100 main 382 382 __________O___ -1 -19.8000 153.100 7 6 98
1940215S18149 1941 42 SP EA NOT_NAMED 1940-08-03 15:00:00 NR -19.8462 153.442 main 403 403 __________P___ -1 -19.8462 153.442 7 7 98
1940215S18149 1941 42 SP EA NOT_NAMED 1940-08-03 18:00:00 NR -19.8960 153.812 main 425 425 __________P___ -1 -19.8960 153.812 7 7 98
1940215S18149 1941 42 SP EA NOT_NAMED 1940-08-03 21:00:00 NR -19.9477 154.201 main 456 449 __________P___ -1 -19.9477 154.201 7 7 98
1940215S18149 1941 42 SP EA NOT_NAMED 1940-08-04 00:00:00 NR -20.0000 154.600 main 482 __________O___ -1 -20.0000 154.600 7 8 98

デジタル台風データ・検索

IBTrACS Databaseについて

本データベースは、米国NOAAが公開する1842年以降の世界の熱帯低気圧のベストトラックデータアーカイブInternational Best Track Archive for Climate Stewardship (IBTrACS)を、ウェブで閲覧しやすい形式に変換したものです。

最終更新日:2021-11-26